Time;durP1;ratioP1;P1;durP2;ratioP2;P2;SDS_P1;SDS_P2;PMS_P1;PMS_P2;Temp;Humidity;BMP_temperature;BMP_pressure;BME280_temperature;BME280_humidity;BME280_pressure;Samples;Min_cycle;Max_cycle;Signal;HPM_P1;HPM_P2
2022/12/09 00:00:30;;;;;;;20.52;15.55;;;;;;;3.56;76.35;98353.47;5106609;28;20089;-73
2022/12/09 00:02:58;;;;;;;20.00;15.88;;;;;;;3.53;76.38;98349.19;5106510;28;20089;-73
2022/12/09 00:05:25;;;;;;;20.98;16.02;;;;;;;2.97;76.36;98277.41;5105915;28;20098;-72
2022/12/09 00:07:51;;;;;;;20.15;15.18;;;;;;;3.00;76.38;98264.19;5105900;28;20047;-73
2022/12/09 00:10:18;;;;;;;19.42;16.25;;;;;;;3.55;76.35;98364.84;5105802;28;20078;-73
2022/12/09 00:12:45;;;;;;;18.92;15.30;;;;;;;3.53;76.36;98367.53;5104779;28;20204;-73
2022/12/09 00:15:12;;;;;;;21.90;16.45;;;;;;;3.53;76.38;98351.81;5105910;28;20044;-72
2022/12/09 00:17:38;;;;;;;20.33;15.70;;;;;;;3.55;76.27;98341.28;5106569;28;20051;-73
2022/12/09 00:20:09;;;;;;;22.90;16.58;;;;;;;2.72;76.20;98209.56;5105452;28;20043;-73
2022/12/09 00:22:36;;;;;;;20.90;16.38;;;;;;;3.55;76.28;98343.91;5105995;28;20043;-73
2022/12/09 00:25:03;;;;;;;20.60;15.75;;;;;;;2.57;76.23;98179.66;5106293;28;20040;-72
2022/12/09 00:27:29;;;;;;;24.38;18.30;;;;;;;3.56;76.32;98342.13;5106492;28;20044;-73
2022/12/09 00:29:56;;;;;;;24.58;18.83;;;;;;;3.55;76.41;98338.66;5105992;28;20207;-73
2022/12/09 00:32:23;;;;;;;24.00;16.98;;;;;;;3.53;76.49;98332.63;5105335;28;20360;-73
2022/12/09 00:34:50;;;;;;;20.27;14.98;;;;;;;2.97;76.66;98240.78;5104899;28;20275;-73
2022/12/09 00:37:18;;;;;;;20.75;16.52;;;;;;;3.51;76.69;98330.06;5105872;28;20077;-73
2022/12/09 00:39:45;;;;;;;23.27;17.42;;;;;;;3.49;76.63;98329.28;5105675;28;20058;-73
2022/12/09 00:42:12;;;;;;;19.52;16.17;;;;;;;3.49;76.65;98318.81;5105869;28;20232;-73
2022/12/09 00:44:38;;;;;;;23.00;16.60;;;;;;;3.50;76.54;98317.91;5105950;28;20055;-73
2022/12/09 00:47:05;;;;;;;22.65;17.67;;;;;;;3.50;76.67;98312.66;5105260;28;20203;-73
2022/12/09 00:49:32;;;;;;;22.25;16.15;;;;;;;3.51;76.69;98322.22;5105572;28;20044;-73
2022/12/09 00:51:58;;;;;;;20.38;15.70;;;;;;;3.52;76.73;98321.31;5105990;28;20053;-73
2022/12/09 00:54:27;;;;;;;22.80;15.05;;;;;;;3.52;76.72;98323.06;5105925;28;20238;-73
2022/12/09 00:56:55;;;;;;;23.00;17.42;;;;;;;3.48;76.77;98327.59;5105575;28;20048;-74
2022/12/09 00:59:22;;;;;;;20.73;15.35;;;;;;;3.02;76.62;98249.28;5104700;28;20388;-74
2022/12/09 01:01:49;;;;;;;20.05;14.70;;;;;;;3.47;76.61;98336.38;5105798;28;20093;-73
2022/12/09 01:04:16;;;;;;;21.27;15.75;;;;;;;3.46;76.42;98339.06;5105580;28;20052;-73
2022/12/09 01:06:43;;;;;;;18.35;14.13;;;;;;;3.44;76.29;98343.50;5105528;28;20107;-74
2022/12/09 01:09:09;;;;;;;18.27;13.55;;;;;;;3.41;76.34;98339.25;5106064;28;20036;-73
2022/12/09 01:11:37;;;;;;;16.15;13.07;;;;;;;3.39;76.21;98338.47;5105034;28;20310;-74
2022/12/09 01:14:04;;;;;;;18.27;12.45;;;;;;;3.40;76.25;98348.03;5105683;28;20101;-73
2022/12/09 01:16:33;;;;;;;16.05;12.35;;;;;;;3.40;76.24;98357.66;5104543;28;20036;-73
2022/12/09 01:19:01;;;;;;;15.18;12.52;;;;;;;3.39;76.17;98354.16;5105571;28;20089;-74
2022/12/09 01:21:29;;;;;;;14.63;12.32;;;;;;;3.38;76.18;98346.38;5105285;28;20051;-72
2022/12/09 01:23:56;;;;;;;14.15;11.48;;;;;;;3.37;76.18;98344.69;5105211;28;20043;-72
2022/12/09 01:26:23;;;;;;;13.88;10.88;;;;;;;3.37;75.92;98344.69;5108149;28;20093;-71
2022/12/09 01:28:53;;;;;;;12.30;10.32;;;;;;;3.32;75.75;98342.25;5092326;28;20234;-72
2022/12/09 01:31:22;;;;;;;11.63;9.07;;;;;;;3.09;75.60;98305.69;5109170;28;20044;-72
2022/12/09 01:33:49;;;;;;;10.23;8.23;;;;;;;3.26;75.82;98332.03;5109043;28;20081;-71
2022/12/09 01:36:19;;;;;;;13.43;9.10;;;;;;;3.25;75.77;98327.72;5108909;28;20056;-72
2022/12/09 01:38:46;;;;;;;10.93;9.82;;;;;;;3.25;75.99;98325.09;5109282;28;20055;-71
2022/12/09 01:41:14;;;;;;;10.35;9.02;;;;;;;3.29;75.64;98313.56;5109162;28;20083;-71
2022/12/09 01:43:42;;;;;;;11.75;9.43;;;;;;;3.28;75.45;98319.72;5109565;28;20052;-73
2022/12/09 01:46:10;;;;;;;11.65;9.70;;;;;;;3.27;75.44;98317.16;5109034;28;20036;-74
2022/12/09 01:48:40;;;;;;;11.77;9.35;;;;;;;3.28;75.48;98329.34;5108117;28;20040;-74
2022/12/09 01:51:10;;;;;;;10.77;8.88;;;;;;;3.06;75.38;98290.13;5109125;28;20060;-74
2022/12/09 01:53:41;;;;;;;11.57;9.48;;;;;;;3.19;75.45;98320.13;5108255;28;20044;-74
2022/12/09 01:56:15;;;;;;;11.52;8.75;;;;;;;3.19;75.46;98327.97;5108952;28;20300;-74
2022/12/09 01:58:42;;;;;;;11.82;8.90;;;;;;;3.21;75.32;98339.22;5107804;28;20044;-73
2022/12/09 02:01:11;;;;;;;10.77;9.00;;;;;;;3.21;75.39;98341.84;5107841;28;20293;-74
2022/12/09 02:03:38;;;;;;;11.32;8.95;;;;;;;3.24;75.22;98317.31;5107774;28;20085;-74
2022/12/09 02:06:05;;;;;;;10.18;8.48;;;;;;;3.24;75.18;98305.06;5108586;28;20185;-73
2022/12/09 02:08:31;;;;;;;10.98;8.52;;;;;;;3.19;75.18;98304.41;5108830;28;20048;-73
2022/12/09 02:11:07;;;;;;;10.07;8.50;;;;;;;3.16;75.24;98310.63;5108750;28;20089;-74
2022/12/09 02:13:40;;;;;;;11.27;9.55;;;;;;;3.17;75.17;98308.84;5108780;28;20051;-73
2022/12/09 02:16:14;;;;;;;10.48;9.10;;;;;;;3.16;75.18;98308.00;5108932;28;20093;-73
2022/12/09 02:18:47;;;;;;;10.25;9.15;;;;;;;3.15;75.13;98305.44;5108913;28;20204;-74
2022/12/09 02:21:21;;;;;;;10.70;9.05;;;;;;;2.94;75.04;98275.78;5108583;28;20070;-73
2022/12/09 02:23:55;;;;;;;10.35;9.25;;;;;;;3.10;75.05;98321.34;5108746;28;20058;-73
2022/12/09 02:26:27;;;;;;;10.33;8.57;;;;;;;3.12;75.00;98323.91;5108540;28;20052;-74
2022/12/09 02:29:15;;;;;;;10.60;7.65;;;;;;;3.12;74.92;98316.03;5108656;28;20063;-73
2022/12/09 02:31:57;;;;;;;9.95;8.55;;;;;;;3.11;74.83;98327.44;5107174;28;20090;-73
2022/12/09 02:34:29;;;;;;;13.73;9.18;;;;;;;3.08;74.88;98324.94;5108153;28;20064;-73
2022/12/09 02:37:04;;;;;;;11.45;8.90;;;;;;;2.57;74.80;98258.13;5106974;28;20097;-73
2022/12/09 02:39:36;;;;;;;10.23;8.32;;;;;;;3.11;74.65;98315.19;5108260;28;20040;-73
2022/12/09 02:42:06;;;;;;;10.35;8.82;;;;;;;2.91;74.62;98294.22;5107341;28;20169;-73
2022/12/09 02:44:35;;;;;;;11.00;8.93;;;;;;;3.12;74.53;98334.38;5108158;28;20043;-74
2022/12/09 02:47:04;;;;;;;10.73;8.93;;;;;;;3.13;74.78;98334.31;5107821;28;20040;-73
2022/12/09 02:49:35;;;;;;;12.35;9.70;;;;;;;3.14;74.62;98327.31;5108314;28;20051;-73
2022/12/09 02:52:04;;;;;;;10.40;9.13;;;;;;;3.16;74.57;98317.63;5106695;28;20032;-73
2022/12/09 02:54:33;;;;;;;13.20;9.80;;;;;;;3.17;74.50;98316.72;5108183;28;20048;-73
2022/12/09 02:57:05;;;;;;;12.93;10.32;;;;;;;2.93;74.57;98274.06;5107901;28;20078;-73
2022/12/09 02:59:31;;;;;;;12.95;10.75;;;;;;;3.15;74.65;98311.53;5107825;28;20044;-73
2022/12/09 03:02:05;;;;;;;15.52;11.68;;;;;;;3.14;74.77;98308.97;5108088;28;20043;-73
2022/12/09 03:04:33;;;;;;;14.32;12.20;;;;;;;3.14;74.79;98307.22;5107522;28;20303;-73
2022/12/09 03:07:11;;;;;;;15.48;11.68;;;;;;;3.11;75.21;98304.72;5107698;28;20086;-73
2022/12/09 03:09:44;;;;;;;16.10;13.02;;;;;;;3.12;75.11;98298.56;5107348;28;20089;-74
2022/12/09 03:12:17;;;;;;;20.15;14.45;;;;;;;3.16;75.16;98307.16;5106368;28;20073;-72
2022/12/09 03:14:49;;;;;;;17.27;13.23;;;;;;;3.15;75.30;98295.81;5107554;28;20056;-73
2022/12/09 03:17:20;;;;;;;18.20;13.27;;;;;;;3.17;75.45;98296.63;5107763;28;20048;-73
2022/12/09 03:19:52;;;;;;;17.27;12.52;;;;;;;3.17;75.53;98299.22;5107113;28;20043;-73
2022/12/09 03:22:23;;;;;;;17.35;13.70;;;;;;;3.21;75.39;98294.72;5107278;28;20081;-72
2022/12/09 03:24:55;;;;;;;19.20;14.60;;;;;;;3.22;75.60;98299.03;5106680;28;20043;-72
2022/12/09 03:27:26;;;;;;;22.33;16.55;;;;;;;3.23;75.94;98297.28;5106970;28;20101;-73
2022/12/09 03:29:55;;;;;;;21.67;15.40;;;;;;;3.19;75.93;98281.69;5106947;28;20223;-72
2022/12/09 03:32:26;;;;;;;21.42;16.25;;;;;;;3.16;76.29;98275.72;5107272;28;20276;-72
2022/12/09 03:35:00;;;;;;;21.70;16.05;;;;;;;3.10;76.71;98276.84;5105560;28;20067;-73
2022/12/09 03:37:27;;;;;;;19.40;14.35;;;;;;;3.09;76.60;98285.59;5106785;28;20051;-72
2022/12/09 03:39:57;;;;;;;22.35;17.02;;;;;;;3.08;76.71;98278.66;5106958;28;20288;-72
2022/12/09 03:42:28;;;;;;;21.15;15.55;;;;;;;3.07;76.98;98276.97;5106014;28;20032;-72
2022/12/09 03:44:59;;;;;;;21.02;16.05;;;;;;;3.08;76.75;98277.81;5106511;28;20097;-72
2022/12/09 03:47:26;;;;;;;20.70;15.02;;;;;;;2.97;76.70;98259.09;5106332;28;20040;-73
2022/12/09 03:49:53;;;;;;;19.58;14.25;;;;;;;3.08;76.61;98278.66;5107071;28;20044;-72
2022/12/09 03:52:27;;;;;;;20.88;14.68;;;;;;;3.07;76.71;98273.50;5106645;28;20044;-72
2022/12/09 03:54:58;;;;;;;18.02;14.15;;;;;;;3.03;76.80;98262.31;5106477;28;20082;-72
2022/12/09 03:57:25;;;;;;;19.48;14.38;;;;;;;3.00;76.72;98254.59;5106669;28;20093;-72
2022/12/09 03:59:57;;;;;;;16.30;12.70;;;;;;;2.99;76.75;98257.25;5106604;28;20044;-72
2022/12/09 04:02:25;;;;;;;17.98;14.23;;;;;;;2.96;76.87;98265.25;5105411;28;20032;-72
2022/12/09 04:04:51;;;;;;;16.50;13.07;;;;;;;2.28;76.66;98165.16;5106470;28;20047;-72
2022/12/09 04:07:19;;;;;;;17.58;12.85;;;;;;;2.89;76.65;98272.50;5106428;28;20055;-72
2022/12/09 04:09:47;;;;;;;19.25;13.43;;;;;;;2.50;76.58;98265.34;5106393;28;20036;-73
2022/12/09 04:12:14;;;;;;;15.63;12.25;;;;;;;2.87;76.49;98275.19;5105966;28;20066;-73
2022/12/09 04:14:41;;;;;;;15.93;11.77;;;;;;;2.86;76.44;98265.63;5106573;28;20051;-73
2022/12/09 04:17:07;;;;;;;15.70;12.98;;;;;;;2.88;76.39;98270.78;5105139;28;20039;-73
2022/12/09 04:19:34;;;;;;;13.98;11.18;;;;;;;2.88;76.14;98268.19;5105126;28;20048;-73
2022/12/09 04:22:01;;;;;;;15.95;11.88;;;;;;;2.85;76.12;98256.06;5105926;28;20173;-73
2022/12/09 04:24:28;;;;;;;13.40;11.30;;;;;;;2.82;76.05;98248.34;5105128;28;20371;-73
2022/12/09 04:26:56;;;;;;;15.68;11.02;;;;;;;2.82;76.00;98247.50;5106266;28;20048;-74
2022/12/09 04:29:22;;;;;;;13.40;10.77;;;;;;;-0.74;75.67;97641.44;5105774;28;20044;-72
2022/12/09 04:31:49;;;;;;;15.80;11.40;;;;;;;2.83;75.75;98238.72;5105818;28;20051;-71
2022/12/09 04:34:16;;;;;;;19.80;12.18;;;;;;;2.85;75.86;98236.91;5104729;28;20056;-71
2022/12/09 04:36:43;;;;;;;14.93;11.48;;;;;;;2.69;75.43;98217.53;5106266;28;20040;-71
2022/12/09 04:39:10;;;;;;;15.52;12.82;;;;;;;2.87;75.55;98254.25;5105973;28;20056;-71
2022/12/09 04:41:37;;;;;;;15.52;11.55;;;;;;;2.86;75.38;98246.47;5105742;28;20074;-72
2022/12/09 04:44:05;;;;;;;14.90;11.98;;;;;;;2.82;75.46;98248.34;5105684;28;20047;-73
2022/12/09 04:46:32;;;;;;;13.75;10.68;;;;;;;2.83;75.36;98238.72;5105799;28;20173;-72
2022/12/09 04:48:59;;;;;;;14.77;10.93;;;;;;;2.15;75.22;98130.81;5105608;28;20296;-72
2022/12/09 04:51:25;;;;;;;15.02;11.48;;;;;;;2.78;75.14;98240.69;5105541;28;20051;-73
2022/12/09 04:53:52;;;;;;;14.95;11.63;;;;;;;2.78;74.93;98245.94;5104666;28;20036;-72
2022/12/09 04:56:21;;;;;;;13.77;11.45;;;;;;;2.77;74.97;98245.06;5104751;28;20044;-73
2022/12/09 04:58:49;;;;;;;15.07;11.13;;;;;;;2.77;75.13;98252.94;5105747;28;20051;-73
2022/12/09 05:01:19;;;;;;;15.05;11.32;;;;;;;2.78;75.11;98240.69;5105696;28;20074;-72
2022/12/09 05:03:48;;;;;;;17.70;12.27;;;;;;;2.78;75.23;98240.69;5104590;28;20046;-73
2022/12/09 05:06:15;;;;;;;16.30;12.45;;;;;;;2.81;75.11;98233.56;5105444;28;20043;-73
2022/12/09 05:08:42;;;;;;;15.48;11.43;;;;;;;2.40;75.09;98172.50;5105385;28;20051;-72
2022/12/09 05:11:09;;;;;;;15.50;12.40;;;;;;;2.80;75.11;98208.31;5105418;28;20051;-72
2022/12/09 05:13:36;;;;;;;15.82;11.38;;;;;;;1.82;74.99;98038.13;5105573;28;20054;-73
2022/12/09 05:16:05;;;;;;;14.15;10.98;;;;;;;1.66;74.91;97997.88;5105378;28;20203;-72
2022/12/09 05:18:34;;;;;;;15.93;12.30;;;;;;;2.82;74.93;98184.69;5105630;28;20062;-72
2022/12/09 05:21:04;;;;;;;16.42;12.75;;;;;;;2.58;74.91;98139.50;5105859;28;20050;-72
2022/12/09 05:23:31;;;;;;;15.70;11.82;;;;;;;2.63;75.04;98142.78;5105386;28;20040;-73
2022/12/09 05:25:58;;;;;;;16.02;11.68;;;;;;;2.77;75.14;98161.34;5105220;28;20094;-73
2022/12/09 05:28:25;;;;;;;15.50;11.75;;;;;;;2.78;75.07;98151.72;5105678;28;20043;-73
2022/12/09 05:30:51;;;;;;;14.27;11.93;;;;;;;2.78;75.15;98147.34;5105415;28;20051;-73
2022/12/09 05:33:18;;;;;;;19.33;11.98;;;;;;;2.77;75.23;98148.25;5104983;28;20089;-73
2022/12/09 05:35:46;;;;;;;15.05;11.85;;;;;;;2.77;75.11;98150.03;5104866;28;20263;-72
2022/12/09 05:38:13;;;;;;;15.55;11.80;;;;;;;2.73;75.18;98153.69;5105165;28;20044;-72
2022/12/09 05:40:39;;;;;;;13.93;10.95;;;;;;;2.50;75.13;98121.50;5105497;28;20319;-71
2022/12/09 05:43:06;;;;;;;17.85;12.48;;;;;;;2.42;75.09;98114.91;5104365;28;20074;-72
2022/12/09 05:45:33;;;;;;;14.73;11.80;;;;;;;2.46;75.13;98119.09;5105432;28;20314;-72
2022/12/09 05:48:00;;;;;;;17.20;11.75;;;;;;;2.60;75.32;98148.13;5105060;28;20052;-72
2022/12/09 05:50:26;;;;;;;16.67;11.90;;;;;;;2.57;75.50;98145.66;5105389;28;20102;-72
2022/12/09 05:52:54;;;;;;;15.18;12.70;;;;;;;2.55;75.43;98142.25;5105261;28;20092;-71
2022/12/09 05:55:21;;;;;;;14.60;11.32;;;;;;;2.54;75.83;98153.63;5105377;28;20304;-72
2022/12/09 05:57:48;;;;;;;15.98;12.18;;;;;;;2.54;75.79;98151.00;5105336;28;20044;-71
2022/12/09 06:00:15;;;;;;;16.90;11.98;;;;;;;2.53;75.83;98163.22;5104174;28;20040;-71
2022/12/09 06:02:42;;;;;;;16.35;12.77;;;;;;;2.52;75.77;98155.44;5104730;28;20361;-72
2022/12/09 06:05:09;;;;;;;19.38;12.60;;;;;;;2.52;75.75;98152.84;5104076;28;20040;-72
2022/12/09 06:07:36;;;;;;;18.85;13.18;;;;;;;2.47;75.85;98154.78;5105025;28;20040;-72
2022/12/09 06:10:05;;;;;;;16.45;12.43;;;;;;;2.45;75.92;98152.25;5105617;28;20058;-72
2022/12/09 06:12:32;;;;;;;17.55;13.70;;;;;;;2.42;76.04;98154.13;5106865;28;20323;-72
2022/12/09 06:14:59;;;;;;;13.88;11.65;;;;;;;2.41;76.02;98158.50;5109102;28;20097;-71
2022/12/09 06:17:26;;;;;;;15.88;12.48;;;;;;;2.39;76.00;98160.34;5108796;28;20087;-72
2022/12/09 06:19:53;;;;;;;15.73;11.38;;;;;;;2.35;76.12;98157.91;5108478;28;20048;-72
2022/12/09 06:22:19;;;;;;;17.48;11.73;;;;;;;2.30;76.03;98149.41;5108707;28;20039;-72
2022/12/09 06:24:46;;;;;;;16.85;11.93;;;;;;;2.26;76.01;98140.00;5107581;28;20051;-72
2022/12/09 06:27:15;;;;;;;17.25;13.48;;;;;;;2.28;76.01;98149.47;5107564;28;20295;-73
2022/12/09 06:29:42;;;;;;;15.52;12.02;;;;;;;2.30;75.96;98137.19;5108634;28;20044;-72
2022/12/09 06:32:09;;;;;;;18.73;13.25;;;;;;;2.30;75.97;98137.19;5108832;28;20056;-72
2022/12/09 06:34:35;;;;;;;19.23;14.45;;;;;;;2.32;76.02;98147.56;5108207;28;20059;-73
2022/12/09 06:37:02;;;;;;;17.13;12.00;;;;;;;2.33;75.80;98139.66;5108489;28;20089;-73
2022/12/09 06:39:29;;;;;;;16.33;12.73;;;;;;;2.33;75.89;98144.91;5107228;28;20040;-73
2022/12/09 06:41:56;;;;;;;16.33;12.23;;;;;;;2.34;75.79;98141.38;5108320;28;20043;-73
2022/12/09 06:44:24;;;;;;;15.65;11.55;;;;;;;2.35;75.62;98130.00;5107928;28;20086;-73
2022/12/09 06:46:51;;;;;;;17.92;13.07;;;;;;;2.16;75.60;98090.69;5108451;28;20292;-73
2022/12/09 06:49:18;;;;;;;16.90;12.90;;;;;;;2.12;75.46;98077.81;5108162;28;20106;-73
2022/12/09 06:51:44;;;;;;;16.80;12.32;;;;;;;2.34;75.46;98102.16;5107802;28;20040;-73
2022/12/09 06:54:11;;;;;;;19.27;13.48;;;;;;;2.33;75.60;98108.28;5107919;28;20047;-73
2022/12/09 06:56:38;;;;;;;17.05;12.70;;;;;;;2.31;75.39;98098.81;5106873;28;20044;-72
2022/12/09 06:59:06;;;;;;;17.35;12.32;;;;;;;2.32;75.45;98100.53;5107671;28;20081;-73
2022/12/09 07:01:35;;;;;;;18.48;12.70;;;;;;;2.34;75.45;98099.53;5106807;28;20201;-73
2022/12/09 07:04:04;;;;;;;15.45;12.43;;;;;;;2.31;75.12;98102.28;5107886;28;20032;-73
2022/12/09 07:06:32;;;;;;;17.08;12.93;;;;;;;2.28;75.14;98099.78;5107706;28;20040;-73
2022/12/09 07:09:02;;;;;;;16.13;11.95;;;;;;;2.27;75.21;98102.47;5107132;28;20333;-73
2022/12/09 07:11:29;;;;;;;17.08;12.38;;;;;;;2.26;75.16;98104.22;5108008;28;20048;-73
2022/12/09 07:13:56;;;;;;;18.80;14.00;;;;;;;2.28;75.25;98096.34;5107827;28;20097;-73
2022/12/09 07:16:23;;;;;;;15.38;12.07;;;;;;;2.31;75.08;98098.81;5106504;28;20044;-72
2022/12/09 07:18:51;;;;;;;16.75;13.68;;;;;;;2.33;74.98;98104.84;5107636;28;20044;-73
2022/12/09 07:21:20;;;;;;;17.40;12.32;;;;;;;2.33;74.90;98103.06;5107273;28;20044;-73
2022/12/09 07:23:47;;;;;;;19.65;13.82;;;;;;;2.32;74.78;98103.97;5107033;28;20043;-72
2022/12/09 07:26:14;;;;;;;18.23;13.52;;;;;;;2.32;74.90;98095.28;5107681;28;20036;-72
2022/12/09 07:28:42;;;;;;;19.67;14.18;;;;;;;2.32;74.88;98085.69;5107347;28;20116;-72
2022/12/09 07:31:18;;;;;;;17.90;13.73;;;;;;;2.28;75.06;98084.09;5107179;28;20056;-72
2022/12/09 07:33:45;;;;;;;17.40;13.60;;;;;;;2.28;74.95;98088.50;5105850;28;20036;-72
2022/12/09 07:36:13;;;;;;;18.17;13.70;;;;;;;2.28;74.95;98084.09;5106591;28;20220;-72
2022/12/09 07:38:40;;;;;;;17.92;13.85;;;;;;;2.27;74.95;98082.41;5106742;28;20051;-72
2022/12/09 07:41:08;;;;;;;19.15;13.27;;;;;;;2.11;74.97;98042.13;5106096;28;20326;-73
2022/12/09 07:43:35;;;;;;;17.83;13.90;;;;;;;2.28;75.27;98068.41;5106916;28;20288;-73
2022/12/09 07:46:05;;;;;;;17.88;13.00;;;;;;;2.25;75.28;98058.09;5106110;28;20040;-73
2022/12/09 07:48:32;;;;;;;17.75;13.65;;;;;;;2.25;75.29;98063.31;5106638;28;20074;-73
2022/12/09 07:51:00;;;;;;;17.63;12.75;;;;;;;2.08;75.15;98031.81;5106769;28;20089;-73
2022/12/09 07:53:28;;;;;;;20.55;13.55;;;;;;;2.27;75.31;98058.88;5106547;28;20038;-73
2022/12/09 07:55:56;;;;;;;21.75;14.48;;;;;;;2.29;75.35;98056.19;5106885;28;20288;-73
2022/12/09 07:58:23;;;;;;;19.05;12.98;;;;;;;2.31;75.41;98059.59;5106826;28;20078;-73
2022/12/09 08:00:49;;;;;;;19.92;15.18;;;;;;;2.14;75.27;98023.72;5106855;28;20137;-73
2022/12/09 08:03:16;;;;;;;21.35;15.35;;;;;;;2.36;75.23;98061.09;5106720;28;20293;-72
2022/12/09 08:05:46;;;;;;;23.52;15.95;;;;;;;2.24;75.27;98030.25;5106426;28;20048;-73
2022/12/09 08:08:13;;;;;;;19.77;12.82;;;;;;;2.42;75.16;98067.84;5105516;28;20300;-73
2022/12/09 08:10:41;;;;;;;21.80;15.05;;;;;;;2.37;75.22;98057.56;5106881;28;20047;-73
2022/12/09 08:13:08;;;;;;;18.58;13.50;;;;;;;2.33;75.37;98063.84;5106339;28;20056;-72
2022/12/09 08:15:36;;;;;;;20.02;14.43;;;;;;;2.31;75.58;98060.44;5105346;28;20039;-73
2022/12/09 08:18:02;;;;;;;22.50;15.50;;;;;;;2.32;75.59;98069.16;5106449;28;20036;-73
2022/12/09 08:20:30;;;;;;;23.30;14.02;;;;;;;2.31;75.98;98067.44;5106104;28;20074;-73
2022/12/09 08:22:57;;;;;;;21.02;13.65;;;;;;;2.33;75.89;98070.84;5106283;28;20036;-73
2022/12/09 08:25:23;;;;;;;25.35;16.70;;;;;;;2.30;76.14;98071.81;5106084;28;20211;-72
2022/12/09 08:27:51;;;;;;;21.08;15.02;;;;;;;2.30;76.30;98068.34;5105142;28;20051;-72
2022/12/09 08:30:18;;;;;;;23.23;15.77;;;;;;;2.31;76.21;98062.22;5105066;28;20042;-73
2022/12/09 08:32:46;;;;;;;21.40;14.52;;;;;;;2.32;76.47;98072.59;5105944;28;20044;-72
2022/12/09 08:35:13;;;;;;;24.38;16.23;;;;;;;2.31;76.39;98067.44;5104397;28;20062;-73
2022/12/09 08:37:40;;;;;;;21.17;14.20;;;;;;;2.30;76.41;98063.13;5106080;28;20048;-72
2022/12/09 08:40:08;;;;;;;22.73;14.05;;;;;;;2.10;76.49;98027.38;5106251;28;20039;-72
2022/12/09 08:42:35;;;;;;;21.77;14.60;;;;;;;2.33;76.25;98053.38;5104976;28;20058;-73
2022/12/09 08:45:04;;;;;;;23.05;15.23;;;;;;;2.33;76.35;98063.00;5105990;28;20048;-72
2022/12/09 08:47:31;;;;;;;22.38;15.40;;;;;;;2.29;76.62;98049.22;5106022;28;20119;-72
2022/12/09 08:49:58;;;;;;;21.73;15.25;;;;;;;2.31;76.52;98052.59;5104657;28;20253;-72
2022/12/09 08:52:25;;;;;;;23.60;16.35;;;;;;;1.21;76.52;97873.50;5104693;28;20044;-73
2022/12/09 08:54:52;;;;;;;23.10;14.05;;;;;;;2.35;76.61;98045.47;5105890;28;20044;-72
2022/12/09 08:57:22;;;;;;;23.00;14.85;;;;;;;2.16;76.76;98007.06;5105391;28;20093;-72
2022/12/09 08:59:48;;;;;;;21.85;14.98;;;;;;;2.39;76.60;98040.06;5104745;28;20311;-73
2022/12/09 09:02:17;;;;;;;23.13;15.80;;;;;;;2.40;76.78;98027.81;5105694;28;20292;-73
2022/12/09 09:04:43;;;;;;;26.70;17.52;;;;;;;2.41;76.88;98035.59;5104666;28;20040;-73
2022/12/09 09:07:10;;;;;;;24.60;17.20;;;;;;;2.44;77.05;98034.63;5105624;28;20043;-73
2022/12/09 09:09:37;;;;;;;24.38;15.38;;;;;;;2.29;77.21;98001.31;5105782;28;20070;-72
2022/12/09 09:12:04;;;;;;;24.35;16.27;;;;;;;2.46;77.27;98022.34;5105496;28;20065;-72
2022/12/09 09:14:31;;;;;;;25.50;17.67;;;;;;;2.48;77.41;98023.97;5104528;28;20040;-73
2022/12/09 09:16:58;;;;;;;28.80;18.10;;;;;;;2.49;78.01;98025.66;5105659;28;20093;-72
2022/12/09 09:19:27;;;;;;;26.75;17.77;;;;;;;2.49;78.02;98022.19;5104563;28;20093;-72
2022/12/09 09:21:54;;;;;;;26.75;17.77;;;;;;;2.47;78.32;98005.72;5105380;28;20040;-73
2022/12/09 09:24:24;;;;;;;27.13;16.73;;;;;;;2.47;78.68;98005.72;5105593;28;20292;-72
2022/12/09 09:26:52;;;;;;;26.40;18.05;;;;;;;2.47;78.75;98003.97;5105489;28;20059;-72
2022/12/09 09:29:21;;;;;;;29.55;18.15;;;;;;;2.50;78.91;97995.97;5104713;28;20043;-72
2022/12/09 09:31:52;;;;;;;29.17;18.25;;;;;;;2.51;79.26;97981.13;5105142;28;20055;-72
2022/12/09 09:34:20;;;;;;;31.35;17.80;;;;;;;2.53;79.31;97974.91;5104895;28;20107;-72
2022/12/09 09:36:48;;;;;;;28.95;17.05;;;;;;;2.55;78.99;97956.53;5105353;28;20295;-72
2022/12/09 09:39:15;;;;;;;30.75;19.40;;;;;;;2.08;79.42;97875.84;5105362;28;20044;-72
2022/12/09 09:41:45;;;;;;;29.17;18.73;;;;;;;2.61;79.62;97964.13;5104778;28;20058;-72
2022/12/09 09:44:21;;;;;;;27.75;18.80;;;;;;;2.62;80.23;97959.72;5105114;28;20047;-72
2022/12/09 09:46:49;;;;;;;30.52;18.58;;;;;;;2.64;79.62;97953.50;5106878;28;20304;-72
2022/12/09 09:49:22;;;;;;;25.73;16.92;;;;;;;2.65;79.88;97939.50;5109214;28;20044;-72
2022/12/09 09:51:51;;;;;;;31.45;17.20;;;;;;;2.66;80.20;97941.22;5108869;28;20097;-73
2022/12/09 09:54:17;;;;;;;28.67;17.73;;;;;;;2.69;79.60;97930.59;5108367;28;20044;-72
2022/12/09 09:56:53;;;;;;;28.88;17.88;;;;;;;2.71;80.22;97938.38;5107837;28;20039;-73
2022/12/09 09:59:32;;;;;;;26.25;16.92;;;;;;;2.32;80.12;97865.22;5108753;28;20044;-73
2022/12/09 10:02:12;;;;;;;26.25;16.20;;;;;;;2.72;80.47;97925.25;5108680;28;20051;-73
2022/12/09 10:04:55;;;;;;;26.55;17.10;;;;;;;2.72;80.34;97904.31;5108703;28;20055;-72
2022/12/09 10:07:30;;;;;;;23.88;15.73;;;;;;;2.74;80.30;97912.94;5108519;28;20044;-73
2022/12/09 10:10:05;;;;;;;24.88;16.98;;;;;;;2.76;80.56;97916.31;5108377;28;20052;-73
2022/12/09 10:12:38;;;;;;;;;;;;;;;2.75;81.65;97908.56;5108281;28;20040;-72
2022/12/09 10:15:11;;;;;;;23.58;14.48;;;;;;;2.74;81.27;97885.91;5108507;28;19926;-72
2022/12/09 10:17:46;;;;;;;20.20;14.00;;;;;;;1.74;80.85;97716.31;5107901;28;20085;-73
2022/12/09 10:20:15;;;;;;;20.85;16.02;;;;;;;2.78;80.64;97877.84;5108082;28;20191;-73
2022/12/09 10:22:48;;;;;;;21.45;14.88;;;;;;;1.97;80.51;97730.94;5108174;28;20089;-73
2022/12/09 10:25:19;;;;;;;23.88;15.27;;;;;;;2.23;80.75;97760.16;5107297;28;20043;-73
2022/12/09 10:27:52;;;;;;;18.45;13.20;;;;;;;2.71;80.62;97833.75;5107222;28;20044;-74
2022/12/09 10:30:20;;;;;;;19.40;12.98;;;;;;;2.69;80.32;97822.50;5107161;28;20311;-73
2022/12/09 10:32:47;;;;;;;20.30;12.85;;;;;;;2.94;80.79;97864.03;5108206;28;20032;-74
2022/12/09 10:35:16;;;;;;;19.25;14.75;;;;;;;2.92;80.63;97853.66;5107771;28;20055;-74
2022/12/09 10:37:44;;;;;;;18.10;13.40;;;;;;;2.95;80.47;97857.88;5107932;28;20040;-74
2022/12/09 10:40:21;;;;;;;20.67;13.38;;;;;;;-0.54;80.55;97272.06;5108282;28;20044;-73
2022/12/09 10:45:42;;;;;;;18.27;12.23;;;;;;;2.99;80.78;97851.59;5108234;28;20188;-73
2022/12/09 10:48:20;;;;;;;16.30;11.20;;;;;;;3.00;81.34;97848.03;5106689;28;20241;-74
2022/12/09 10:50:47;;;;;;;19.42;12.75;;;;;;;3.02;80.76;97846.19;5107571;28;20058;-73
2022/12/09 10:53:16;;;;;;;17.90;12.68;;;;;;;3.02;80.97;97838.34;5107562;28;20055;-73
2022/12/09 10:55:49;;;;;;;17.88;13.13;;;;;;;3.04;81.03;97829.50;5108062;28;20089;-74
2022/12/09 10:58:19;;;;;;;16.33;11.82;;;;;;;3.07;80.97;97828.50;5106905;28;20052;-73
2022/12/09 11:01:02;;;;;;;16.92;12.88;;;;;;;3.11;81.32;97823.03;5106630;28;20046;-74
2022/12/09 11:03:32;;;;;;;17.00;13.07;;;;;;;3.14;80.72;97811.56;5107351;28;20044;-74
2022/12/09 11:06:02;;;;;;;21.92;14.25;;;;;;;3.18;80.58;97807.88;5107249;28;20040;-73
2022/12/09 11:08:31;;;;;;;17.00;12.18;;;;;;;3.19;80.50;97805.19;5107204;28;20312;-73
2022/12/09 11:10:58;;;;;;;15.88;11.50;;;;;;;3.07;80.34;97778.78;5107234;28;20043;-73
2022/12/09 11:13:38;;;;;;;15.93;12.35;;;;;;;2.96;81.29;97750.50;5107630;28;20067;-72
2022/12/09 11:16:06;;;;;;;14.70;11.07;;;;;;;3.14;80.53;97772.31;5106624;28;20044;-73
2022/12/09 11:18:42;;;;;;;14.93;11.75;;;;;;;2.63;80.57;97682.41;5106159;28;20345;-73
2022/12/09 11:21:29;;;;;;;15.07;10.80;;;;;;;3.36;81.32;97799.09;5106170;28;20039;-73
2022/12/09 11:23:57;;;;;;;14.43;9.65;;;;;;;3.37;80.79;97815.66;5106959;28;20318;-73
2022/12/09 11:26:31;;;;;;;11.10;9.50;;;;;;;3.38;80.58;97797.25;5106672;28;20235;-73
2022/12/09 11:29:03;;;;;;;13.63;10.20;;;;;;;3.40;80.61;97798.00;5105793;28;20043;-73
2022/12/09 11:31:33;;;;;;;17.38;10.43;;;;;;;3.45;80.38;97801.25;5106640;28;20238;-73
2022/12/09 11:34:03;;;;;;;13.05;8.82;;;;;;;3.47;80.17;97795.94;5106965;28;20180;-73
2022/12/09 11:36:33;;;;;;;14.45;9.55;;;;;;;3.50;80.15;97790.53;5106651;28;20052;-73